createdAt,value
2019-04-10T00:00:24.714Z,99927.78
2019-04-10T00:02:55.546Z,99931.83
2019-04-10T00:05:26.041Z,99928.73
2019-04-10T00:07:55.758Z,99927.67
2019-04-10T00:10:25.757Z,99933.73
2019-04-10T00:12:56.149Z,99928.50
2019-04-10T00:15:26.360Z,99934.69
2019-04-10T00:17:56.036Z,99931.19
2019-04-10T00:20:26.664Z,99924.52
2019-04-10T00:22:56.234Z,99928.12
2019-04-10T00:25:26.548Z,99929.41
2019-04-10T00:27:56.336Z,99933.84
2019-04-10T00:30:27.057Z,99930.33
2019-04-10T00:32:56.860Z,99926.83
2019-04-10T00:35:27.307Z,99922.84
2019-04-10T00:37:57.540Z,99924.34
2019-04-10T00:40:27.671Z,99925.94
2019-04-10T00:42:58.600Z,99915.94
2019-04-10T00:45:29.308Z,99917.67
2019-04-10T00:47:59.569Z,99917.11
2019-04-10T00:50:29.296Z,99913.00
2019-04-10T00:52:58.826Z,99915.76
2019-04-10T00:55:28.819Z,99908.54
2019-04-10T00:57:58.655Z,99911.46
2019-04-10T01:00:28.800Z,99906.62
2019-04-10T01:02:58.831Z,99910.84
2019-04-10T01:05:28.548Z,99908.94
2019-04-10T01:07:58.342Z,99905.91
2019-04-10T01:10:28.563Z,99911.39
2019-04-10T01:12:58.717Z,99912.03
2019-04-10T01:15:28.873Z,99914.05
2019-04-10T01:17:59.088Z,99909.91
2019-04-10T01:20:29.345Z,99907.73
2019-04-10T01:22:59.462Z,99910.81
2019-04-10T01:25:30.182Z,99905.59
2019-04-10T01:28:00.535Z,99893.15
2019-04-10T01:30:30.567Z,99891.39
2019-04-10T01:33:00.735Z,99893.47
2019-04-10T01:35:30.589Z,99891.89
2019-04-10T01:38:01.471Z,99891.67
2019-04-10T01:40:31.454Z,99890.08
2019-04-10T01:43:09.289Z,99883.58
2019-04-10T01:45:33.439Z,99879.93
2019-04-10T01:48:03.764Z,99879.55
2019-04-10T01:50:34.993Z,99885.41
2019-04-10T01:53:04.465Z,99878.47
2019-04-10T01:55:34.735Z,99876.73
2019-04-10T01:58:06.781Z,99879.39
2019-04-10T02:00:38.115Z,99882.94
2019-04-10T02:03:07.721Z,99875.92
2019-04-10T02:05:37.288Z,99875.59
2019-04-10T02:08:10.355Z,99873.94
2019-04-10T02:10:38.500Z,99869.50
2019-04-10T02:13:07.996Z,99871.80
2019-04-10T02:15:38.397Z,99875.96
2019-04-10T02:18:08.875Z,99876.82
2019-04-10T02:20:38.863Z,99871.64
2019-04-10T02:23:08.577Z,99874.05
2019-04-10T02:25:39.083Z,99879.03
2019-04-10T02:28:08.995Z,99880.48
2019-04-10T02:30:39.592Z,99884.45
2019-04-10T02:33:10.743Z,99879.92
2019-04-10T02:35:40.857Z,99878.11
2019-04-10T02:38:25.932Z,99873.86
2019-04-10T02:40:43.240Z,99873.50
2019-04-10T02:43:14.435Z,99872.98
2019-04-10T02:45:49.370Z,99866.81
2019-04-10T02:48:19.456Z,99876.01
2019-04-10T02:50:51.425Z,99872.02
2019-04-10T02:53:21.717Z,99874.31
2019-04-10T02:55:53.552Z,99868.98
2019-04-10T02:58:24.273Z,99868.83
2019-04-10T03:00:56.205Z,99867.47
2019-04-10T03:03:25.797Z,99870.23
2019-04-10T03:05:56.545Z,99867.16
2019-04-10T03:08:40.998Z,99871.73
2019-04-10T03:11:03.607Z,99875.18
2019-04-10T03:13:29.341Z,99871.41
2019-04-10T03:16:00.165Z,99873.48
2019-04-10T03:18:30.542Z,99870.13
2019-04-10T03:21:00.202Z,99871.42
2019-04-10T03:23:29.697Z,99871.37
2019-04-10T03:25:59.486Z,99867.76
2019-04-10T03:28:29.469Z,99867.48
2019-04-10T03:31:01.115Z,99866.90
2019-04-10T03:33:45.435Z,99870.97
2019-04-10T03:36:12.113Z,99872.72
2019-04-10T03:38:54.495Z,99873.14
2019-04-10T03:41:12.725Z,99870.43
2019-04-10T03:43:42.204Z,99871.17
2019-04-10T03:46:11.655Z,99876.28
2019-04-10T03:48:41.142Z,99868.52
2019-04-10T03:51:10.590Z,99868.95
2019-04-10T03:53:40.356Z,99869.80
2019-04-10T03:56:09.760Z,99880.84
2019-04-10T03:58:39.795Z,99876.56
2019-04-10T04:01:09.776Z,99875.87
2019-04-10T04:03:39.290Z,99877.98
2019-04-10T04:06:09.067Z,99874.38
2019-04-10T04:08:39.522Z,99878.77
2019-04-10T04:11:09.409Z,99888.81
2019-04-10T04:13:39.694Z,99888.16
2019-04-10T04:16:09.190Z,99894.35
2019-04-10T04:18:39.414Z,99894.93
2019-04-10T04:21:09.724Z,99904.04
2019-04-10T04:23:39.242Z,99898.91
2019-04-10T04:26:08.702Z,99902.67
2019-04-10T04:28:38.164Z,99896.81
2019-04-10T04:31:07.803Z,99893.91
2019-04-10T04:33:38.844Z,99892.77
2019-04-10T04:36:08.566Z,99897.22
2019-04-10T04:38:38.924Z,99895.69
2019-04-10T04:41:09.015Z,99898.64
2019-04-10T04:43:39.150Z,99901.64
2019-04-10T04:46:10.112Z,99902.54
2019-04-10T04:48:39.660Z,99907.45
2019-04-10T04:51:09.112Z,99905.06
2019-04-10T04:53:39.891Z,99905.34
2019-04-10T04:56:09.544Z,99912.55
2019-04-10T04:58:39.292Z,99910.84
2019-04-10T05:01:17.203Z,99918.24
2019-04-10T05:03:46.766Z,99918.69
2019-04-10T05:06:16.279Z,99924.85
2019-04-10T05:08:46.300Z,99930.05
2019-04-10T05:11:16.201Z,99934.01
2019-04-10T05:13:46.746Z,99930.81
2019-04-10T05:16:16.603Z,99930.73
2019-04-10T05:18:46.112Z,99928.28
2019-04-10T05:21:16.973Z,99931.16
2019-04-10T05:23:47.017Z,99932.22
2019-04-10T05:26:16.635Z,99933.88
2019-04-10T05:28:46.672Z,99931.30
2019-04-10T05:31:17.251Z,99940.73
2019-04-10T05:33:47.603Z,99935.42
2019-04-10T05:36:17.344Z,99933.80
2019-04-10T05:38:46.893Z,99935.39
2019-04-10T05:41:17.505Z,99927.49
2019-04-10T05:43:47.095Z,99931.48
2019-04-10T05:46:16.707Z,99929.67
2019-04-10T05:48:46.275Z,99931.50
2019-04-10T05:51:17.027Z,99931.11
2019-04-10T05:53:47.072Z,99932.41
2019-04-10T05:56:19.065Z,99936.09
2019-04-10T05:58:49.108Z,99937.05
2019-04-10T06:01:31.339Z,99922.66
2019-04-10T06:03:50.208Z,99927.56
2019-04-10T06:06:20.078Z,99932.05
2019-04-10T06:08:49.592Z,99928.61
2019-04-10T06:11:19.045Z,99924.81
2019-04-10T06:13:49.008Z,99936.69
2019-04-10T06:16:19.543Z,99931.23
2019-04-10T06:18:49.353Z,99928.70
2019-04-10T06:21:19.153Z,99924.23
2019-04-10T06:23:49.768Z,99920.33
2019-04-10T06:26:19.852Z,99924.09
2019-04-10T06:28:50.485Z,99911.32
2019-04-10T06:31:20.746Z,99911.09
2019-04-10T06:33:50.709Z,99909.13
2019-04-10T06:36:20.132Z,99910.04
2019-04-10T06:38:49.608Z,99904.66
2019-04-10T06:41:20.049Z,99898.54
2019-04-10T06:43:49.688Z,99905.82
2019-04-10T06:46:20.123Z,99914.88
2019-04-10T06:48:50.038Z,99914.88
2019-04-10T06:51:21.253Z,99914.02
2019-04-10T06:54:01.842Z,99914.53
2019-04-10T06:56:22.251Z,99912.41
2019-04-10T06:58:52.014Z,99917.13
2019-04-10T07:01:24.281Z,99923.77
2019-04-10T07:04:00.931Z,99921.43
2019-04-10T07:06:42.721Z,99929.02
2019-04-10T07:08:55.520Z,99920.50
2019-04-10T07:11:28.400Z,99920.50
2019-04-10T07:13:57.381Z,99919.39
2019-04-10T07:16:29.999Z,99930.44
2019-04-10T07:19:02.743Z,99924.47
2019-04-10T07:21:32.904Z,99929.47
2019-04-10T07:24:05.332Z,99929.62
2019-04-10T07:26:39.325Z,99932.63
2019-04-10T07:29:04.646Z,99929.69
2019-04-10T07:31:36.311Z,99931.39
2019-04-10T07:34:06.683Z,99943.11
2019-04-10T07:36:39.921Z,99933.86
2019-04-10T07:39:07.898Z,99934.00
2019-04-10T07:41:37.778Z,99934.80
2019-04-10T07:44:08.277Z,99931.06
2019-04-10T07:46:38.213Z,99933.71
2019-04-10T07:49:08.548Z,99941.08
2019-04-10T07:51:38.898Z,99939.74
2019-04-10T07:54:08.782Z,99939.55
2019-04-10T07:56:39.292Z,99939.72
2019-04-10T07:59:09.277Z,99946.47
2019-04-10T08:01:40.440Z,99943.73
2019-04-10T08:04:10.442Z,99942.87
2019-04-10T08:06:39.925Z,99955.39
2019-04-10T08:09:10.518Z,99962.00
2019-04-10T08:11:40.234Z,99960.67
2019-04-10T08:14:10.588Z,99955.92
2019-04-10T08:16:40.094Z,99950.92
2019-04-10T08:19:10.399Z,99951.63
2019-04-10T08:21:40.330Z,99953.80
2019-04-10T08:24:09.867Z,99961.23
2019-04-10T08:26:39.421Z,99961.08
2019-04-10T08:29:09.911Z,99959.55
2019-04-10T08:31:39.734Z,99960.30
2019-04-10T08:34:09.239Z,99953.31
2019-04-10T08:36:39.476Z,99949.13
2019-04-10T08:39:09.238Z,99970.34
2019-04-10T08:41:38.752Z,99965.38
2019-04-10T08:44:08.243Z,99960.39
2019-04-10T08:46:38.022Z,99963.35
2019-04-10T08:49:07.822Z,99976.89
2019-04-10T08:51:37.439Z,99971.10
2019-04-10T08:54:07.900Z,99966.11
2019-04-10T08:56:38.606Z,99962.44
2019-04-10T08:59:08.155Z,99964.73
2019-04-10T09:01:37.712Z,99967.70
2019-04-10T09:04:07.763Z,99968.15
2019-04-10T09:06:37.752Z,99969.25
2019-04-10T09:09:07.735Z,99965.38
2019-04-10T09:11:37.576Z,99962.34
2019-04-10T09:14:07.123Z,99958.88
2019-04-10T09:16:36.731Z,99961.03
2019-04-10T09:19:06.177Z,99960.39
2019-04-10T09:21:35.663Z,99960.80
2019-04-10T09:24:05.148Z,99957.44
2019-04-10T09:26:34.632Z,99958.22
2019-04-10T09:29:04.609Z,99956.19
2019-04-10T09:31:34.047Z,99943.86
2019-04-10T09:34:03.678Z,99961.66
2019-04-10T09:36:33.374Z,99952.85
2019-04-10T09:39:05.268Z,99953.05
2019-04-10T09:41:34.835Z,99945.73
2019-04-10T09:44:04.517Z,99936.44
2019-04-10T09:46:35.002Z,99944.00
2019-04-10T09:49:05.523Z,99944.52
2019-04-10T09:51:36.168Z,99948.02
2019-04-10T09:54:05.827Z,99948.98
2019-04-10T09:56:36.407Z,99939.91
2019-04-10T09:59:06.006Z,99945.70
2019-04-10T10:01:35.844Z,99947.01
2019-04-10T10:04:05.370Z,99938.59
2019-04-10T10:06:36.655Z,99936.94
2019-04-10T10:09:08.359Z,99943.55
2019-04-10T10:11:38.600Z,99946.66
2019-04-10T10:14:08.332Z,99941.36
2019-04-10T10:16:38.062Z,99950.00
2019-04-10T10:19:07.957Z,99951.75
2019-04-10T10:21:38.814Z,99943.17
2019-04-10T10:24:08.662Z,99928.97
2019-04-10T10:26:38.312Z,99941.53
2019-04-10T10:29:07.712Z,99941.52
2019-04-10T10:31:38.023Z,99934.13
2019-04-10T10:34:08.128Z,99930.43
2019-04-10T10:36:41.868Z,99919.41
2019-04-10T10:39:18.876Z,99926.44
2019-04-10T10:41:49.043Z,99933.11
2019-04-10T10:44:19.343Z,99925.64
2019-04-10T10:46:49.540Z,99925.58
2019-04-10T10:49:20.158Z,99927.06
2019-04-10T10:51:49.633Z,99926.86
2019-04-10T10:54:19.084Z,99926.55
2019-04-10T10:56:48.917Z,99920.78
2019-04-10T10:59:19.603Z,99928.45
2019-04-10T11:01:49.186Z,99929.47
2019-04-10T11:04:19.105Z,99924.86
2019-04-10T11:06:56.066Z,99932.22
2019-04-10T11:09:19.904Z,99925.70
2019-04-10T11:11:49.531Z,99925.05
2019-04-10T11:14:19.189Z,99939.86
2019-04-10T11:16:49.473Z,99921.84
2019-04-10T11:19:19.832Z,99927.56
2019-04-10T11:21:49.713Z,99920.25
2019-04-10T11:24:19.635Z,99925.16
2019-04-10T11:26:50.414Z,99916.08
2019-04-10T11:29:21.818Z,99918.25
2019-04-10T11:31:51.856Z,99924.05
2019-04-10T11:34:22.619Z,99913.50
2019-04-10T11:37:12.908Z,99917.04
2019-04-10T11:39:28.253Z,99923.08
2019-04-10T11:41:55.321Z,99913.70
2019-04-10T11:44:28.212Z,99926.11
2019-04-10T11:46:58.977Z,99928.23
2019-04-10T11:49:29.478Z,99931.42
2019-04-10T11:52:01.430Z,99935.22
2019-04-10T11:54:32.764Z,99930.38
2019-04-10T11:57:03.238Z,99934.94
2019-04-10T11:59:35.989Z,99926.77
2019-04-10T12:04:45.049Z,99935.73
2019-04-10T12:07:09.748Z,99927.97
2019-04-10T12:12:09.431Z,99933.78
2019-04-10T12:14:39.621Z,99931.45
2019-04-10T12:17:09.650Z,99934.72
2019-04-10T12:19:39.180Z,99933.21
2019-04-10T12:22:09.504Z,99939.16
2019-04-10T12:24:39.223Z,99941.30
2019-04-10T12:27:09.195Z,99941.44
2019-04-10T12:29:38.744Z,99939.23
2019-04-10T12:32:08.437Z,99952.50
2019-04-10T12:34:37.903Z,99951.75
2019-04-10T12:37:07.438Z,99948.69
2019-04-10T12:39:36.894Z,99941.16
2019-04-10T12:42:07.942Z,99953.01
2019-04-10T12:44:39.469Z,99956.17
2019-04-10T12:47:08.622Z,99953.37
2019-04-10T12:49:39.358Z,99950.05
2019-04-10T12:52:10.080Z,99953.89
2019-04-10T12:54:40.490Z,99945.88
2019-04-10T12:57:10.602Z,99941.73
2019-04-10T12:59:41.635Z,99958.05
2019-04-10T13:02:12.326Z,99953.19
2019-04-10T13:04:42.929Z,99960.88
2019-04-10T13:07:13.643Z,99951.11
2019-04-10T13:09:44.281Z,99932.63
2019-04-10T13:12:13.838Z,99938.03
2019-04-10T13:14:43.297Z,99945.30
2019-04-10T13:17:13.052Z,99950.91
2019-04-10T13:19:42.963Z,99946.27
2019-04-10T13:22:12.714Z,99947.44
2019-04-10T13:24:42.293Z,99944.21
2019-04-10T13:27:12.577Z,99937.33
2019-04-10T13:29:42.667Z,99943.62
2019-04-10T13:32:12.184Z,99940.83
2019-04-10T13:34:41.731Z,99937.30
2019-04-10T13:37:12.327Z,99953.45
2019-04-10T13:39:41.826Z,99938.91
2019-04-10T13:42:11.377Z,99927.73
2019-04-10T13:44:41.212Z,99939.16
2019-04-10T13:47:10.717Z,99946.85
2019-04-10T13:49:40.183Z,99945.24
2019-04-10T13:52:09.996Z,99950.45
2019-04-10T13:54:39.477Z,99948.55
2019-04-10T13:57:09.790Z,99938.40
2019-04-10T13:59:39.457Z,99941.20
2019-04-10T14:02:10.660Z,99938.78
2019-04-10T14:04:45.226Z,99943.62
2019-04-10T14:07:17.947Z,99919.63
2019-04-10T14:09:52.414Z,99934.65
2019-04-10T14:12:24.945Z,99952.92
2019-04-10T14:14:57.241Z,99948.53
2019-04-10T14:17:58.085Z,99954.58
2019-04-10T14:20:31.250Z,99945.83
2019-04-10T14:23:08.333Z,99954.45
2019-04-10T14:26:02.264Z,99957.95
2019-04-10T14:28:37.522Z,99952.14
2019-04-10T14:31:42.846Z,99950.61
2019-04-10T14:34:20.223Z,99955.24
2019-04-10T14:36:54.804Z,99958.84
2019-04-10T14:39:29.999Z,99957.84
2019-04-10T14:42:04.401Z,99949.48
2019-04-10T14:44:40.940Z,99952.23
2019-04-10T14:47:21.264Z,99958.00
2019-04-10T14:49:54.895Z,99955.35
2019-04-10T14:52:31.057Z,99950.97
2019-04-10T14:55:01.954Z,99956.52
2019-04-10T14:57:39.008Z,99961.84
2019-04-10T15:00:20.239Z,99956.72
2019-04-10T15:02:51.390Z,99943.70
2019-04-10T15:05:26.013Z,99954.88
2019-04-10T15:07:59.981Z,99959.09
2019-04-10T15:10:42.075Z,99952.59
2019-04-10T15:13:17.731Z,99957.60
2019-04-10T15:15:45.119Z,99961.96
2019-04-10T15:18:20.482Z,99954.80
2019-04-10T15:21:00.844Z,99960.43
2019-04-10T15:23:35.768Z,99961.47
2019-04-10T15:26:13.420Z,99966.09
2019-04-10T15:28:47.772Z,99970.52
2019-04-10T15:31:19.394Z,99963.02
2019-04-10T15:33:51.888Z,99972.09
2019-04-10T15:36:29.749Z,99975.00
2019-04-10T15:39:00.327Z,99979.56
2019-04-10T15:41:39.340Z,99973.82
2019-04-10T15:44:28.398Z,99985.05
2019-04-10T15:47:15.166Z,99977.19
2019-04-10T15:49:44.995Z,99981.74
2019-04-10T15:52:24.616Z,99984.25
2019-04-10T15:54:50.040Z,99984.25
2019-04-10T15:57:22.761Z,99995.53
2019-04-10T15:59:55.176Z,99991.28
2019-04-10T16:02:30.568Z,99991.28
2019-04-10T16:05:04.822Z,99987.88
2019-04-10T16:07:42.893Z,99991.66
2019-04-10T16:10:19.460Z,99986.66
2019-04-10T16:13:00.697Z,99993.94
2019-04-10T16:15:41.287Z,99991.16
2019-04-10T16:18:28.443Z,99990.46
2019-04-10T16:21:04.097Z,99988.44
2019-04-10T16:23:44.231Z,99988.91
2019-04-10T16:26:17.164Z,99982.78
2019-04-10T16:28:56.407Z,99982.78
2019-04-10T16:31:23.593Z,99993.22
2019-04-10T16:34:00.869Z,99995.67
2019-04-10T16:36:38.894Z,100001.31
2019-04-10T16:39:15.447Z,100007.14
2019-04-10T16:41:54.511Z,99993.70
2019-04-10T16:44:24.811Z,99993.70
2019-04-10T16:46:55.336Z,100006.30
2019-04-10T16:49:24.857Z,100001.88
2019-04-10T16:51:54.500Z,100007.69
2019-04-10T16:54:25.033Z,100011.14
2019-04-10T16:56:56.202Z,100010.03
2019-04-10T16:59:26.157Z,100008.11
2019-04-10T17:02:00.315Z,100007.88
2019-04-10T17:04:29.881Z,100018.17
2019-04-10T17:06:59.334Z,100017.56
2019-04-10T17:09:29.886Z,100016.33
2019-04-10T17:11:59.340Z,100024.92
2019-04-10T17:14:29.325Z,100032.02
2019-04-10T17:16:58.879Z,100026.94
2019-04-10T17:19:28.761Z,100033.37
2019-04-10T17:21:58.821Z,100036.75
2019-04-10T17:24:29.291Z,100038.88
2019-04-10T17:26:59.328Z,100042.88
2019-04-10T17:29:29.393Z,100046.77
2019-04-10T17:31:59.287Z,100046.24
2019-04-10T17:34:29.021Z,100052.98
2019-04-10T17:36:59.186Z,100053.38
2019-04-10T17:39:28.745Z,100057.92
2019-04-10T17:41:58.200Z,100060.14
2019-04-10T17:44:27.723Z,100066.44
2019-04-10T17:46:57.626Z,100069.72
2019-04-10T17:49:27.699Z,100068.70
2019-04-10T17:51:58.706Z,100073.56
2019-04-10T17:54:29.762Z,100082.45
2019-04-10T17:57:00.296Z,100087.18
2019-04-10T17:59:30.241Z,100089.97
2019-04-10T18:02:01.666Z,100096.11
2019-04-10T18:04:31.907Z,100101.30
2019-04-10T18:07:01.757Z,100107.64
2019-04-10T18:09:32.699Z,100109.50
2019-04-10T18:12:02.217Z,100119.69
2019-04-10T18:14:31.648Z,100117.95
2019-04-10T18:17:02.530Z,100124.83
2019-04-10T18:19:32.442Z,100125.34
2019-04-10T18:22:02.428Z,100131.45
2019-04-10T18:24:33.133Z,100135.41
2019-04-10T18:27:03.754Z,100145.66
2019-04-10T18:29:33.244Z,100146.88
2019-04-10T18:32:02.783Z,100151.20
2019-04-10T18:34:33.378Z,100157.89
2019-04-10T18:37:04.383Z,100162.51
2019-04-10T18:39:34.640Z,100164.86
2019-04-10T18:42:05.567Z,100163.77
2019-04-10T18:44:35.321Z,100166.94
2019-04-10T18:47:05.004Z,100176.20
2019-04-10T18:49:34.389Z,100181.06
2019-04-10T18:52:03.951Z,100183.27
2019-04-10T18:54:34.000Z,100194.20
2019-04-10T18:57:05.291Z,100191.88
2019-04-10T18:59:39.325Z,100193.45
2019-04-10T19:02:28.429Z,100196.96
2019-04-10T19:05:14.001Z,100199.49
2019-04-10T19:07:43.492Z,100207.73
2019-04-10T19:10:12.948Z,100208.80
2019-04-10T19:12:43.222Z,100213.27
2019-04-10T19:15:13.250Z,100216.87
2019-04-10T19:17:43.478Z,100219.65
2019-04-10T19:20:13.503Z,100229.91
2019-04-10T19:22:44.664Z,100229.61
2019-04-10T19:25:14.576Z,100231.98
2019-04-10T19:27:44.589Z,100239.98
2019-04-10T19:30:17.152Z,100240.09
2019-04-10T19:32:47.771Z,100249.02
2019-04-10T19:35:17.562Z,100246.61
2019-04-10T19:37:49.986Z,100248.48
2019-04-10T19:40:19.190Z,100245.41
2019-04-10T19:42:49.384Z,100247.11
2019-04-10T19:45:19.514Z,100246.74
2019-04-10T19:47:49.223Z,100249.52
2019-04-10T19:50:19.442Z,100246.38
2019-04-10T19:52:49.060Z,100245.14
2019-04-10T19:55:19.813Z,100249.20
2019-04-10T19:57:49.855Z,100248.23
2019-04-10T20:00:22.156Z,100253.41
2019-04-10T20:02:51.610Z,100246.44
2019-04-10T20:05:21.215Z,100251.17
2019-04-10T20:07:51.395Z,100253.34
2019-04-10T20:10:21.350Z,100254.67
2019-04-10T20:12:51.090Z,100254.67
2019-04-10T20:15:20.566Z,100262.25
2019-04-10T20:17:50.410Z,100262.88
2019-04-10T20:20:20.017Z,100268.42
2019-04-10T20:22:50.121Z,100274.55
2019-04-10T20:25:20.111Z,100277.05
2019-04-10T20:27:50.103Z,100284.06
2019-04-10T20:30:21.505Z,100287.69
2019-04-10T20:32:50.972Z,100285.71
2019-04-10T20:35:20.487Z,100296.73
2019-04-10T20:37:51.151Z,100289.73
2019-04-10T20:40:20.837Z,100291.45
2019-04-10T20:42:50.859Z,100296.10
2019-04-10T20:45:21.124Z,100297.30
2019-04-10T20:47:51.843Z,100296.72
2019-04-10T20:50:21.398Z,100301.43
2019-04-10T20:52:51.562Z,100302.17
2019-04-10T20:55:21.635Z,100308.36
2019-04-10T20:57:52.075Z,100315.53
2019-04-10T21:00:30.154Z,100314.14
2019-04-10T21:03:00.670Z,100315.90
2019-04-10T21:05:30.185Z,100321.75
2019-04-10T21:07:59.893Z,100323.45
2019-04-10T21:10:29.419Z,100318.05
2019-04-10T21:12:59.680Z,100325.00
2019-04-10T21:15:29.973Z,100327.02
2019-04-10T21:17:59.463Z,100330.55
2019-04-10T21:20:28.931Z,100328.09
2019-04-10T21:22:58.473Z,100337.62
2019-04-10T21:25:27.939Z,100338.61
2019-04-10T21:27:57.832Z,100338.91
2019-04-10T21:30:29.003Z,100345.70
2019-04-10T21:33:16.824Z,100346.07
2019-04-10T21:35:47.656Z,100345.07
2019-04-10T21:38:17.302Z,100349.73
2019-04-10T21:40:47.409Z,100345.72
2019-04-10T21:43:16.941Z,100353.61
2019-04-10T21:45:47.560Z,100347.66
2019-04-10T21:48:17.026Z,100345.20
2019-04-10T21:50:46.516Z,100339.65
2019-04-10T21:53:16.452Z,100342.02
2019-04-10T21:55:45.986Z,100344.50
2019-04-10T21:58:16.365Z,100347.55
2019-04-10T22:00:53.120Z,100347.22
2019-04-10T22:03:23.464Z,100350.41
2019-04-10T22:06:00.005Z,100349.52
2019-04-10T22:08:37.152Z,100349.91
2019-04-10T22:11:08.434Z,100354.09
2019-04-10T22:13:38.094Z,100346.53
2019-04-10T22:16:09.443Z,100352.44
2019-04-10T22:18:39.408Z,100349.68
2019-04-10T22:21:09.342Z,100355.95
2019-04-10T22:23:38.793Z,100354.90
2019-04-10T22:26:09.255Z,100351.58
2019-04-10T22:28:39.351Z,100350.16
2019-04-10T22:31:09.622Z,100355.80
2019-04-10T22:33:40.443Z,100356.36
2019-04-10T22:36:10.972Z,100359.31
2019-04-10T22:38:41.855Z,100361.39
2019-04-10T22:41:20.635Z,100366.05
2019-04-10T22:43:44.970Z,100365.38
2019-04-10T22:46:15.126Z,100362.16
2019-04-10T22:48:45.531Z,100364.08
2019-04-10T22:51:15.261Z,100370.25
2019-04-10T22:53:45.869Z,100372.61
2019-04-10T22:56:15.764Z,100373.73
2019-04-10T22:58:45.630Z,100376.20
2019-04-10T23:01:15.614Z,100381.16
2019-04-10T23:03:45.382Z,100374.33
2019-04-10T23:06:15.295Z,100379.07
2019-04-10T23:08:44.918Z,100380.56
2019-04-10T23:11:15.229Z,100378.88
2019-04-10T23:13:45.879Z,100387.56
2019-04-10T23:16:17.110Z,100384.66
2019-04-10T23:18:47.677Z,100384.64
2019-04-10T23:21:18.549Z,100379.61
2019-04-10T23:23:48.921Z,100389.13
2019-04-10T23:26:20.733Z,100390.82
2019-04-10T23:28:51.709Z,100393.66
2019-04-10T23:31:21.623Z,100394.68
2019-04-10T23:33:52.347Z,100394.89
2019-04-10T23:36:23.543Z,100402.94
2019-04-10T23:38:53.480Z,100397.75
2019-04-10T23:41:23.368Z,100396.98
2019-04-10T23:43:53.640Z,100404.27
2019-04-10T23:46:23.555Z,100407.83
2019-04-10T23:48:53.443Z,100407.23
2019-04-10T23:51:23.357Z,100402.87
2019-04-10T23:53:53.138Z,100408.15
2019-04-10T23:56:22.620Z,100409.48
2019-04-10T23:58:52.083Z,100414.02
